• Join FlightAware (Why Join?)
  • Login
  • US Flag 
12:29PM EDT


 

Airport Tracker/Info


-or-


 

Live Flight TrackerFlight Track Log ✈ EJA583 ✈ 16-Jul-2013 ✈ KCRQ - KBFI

Flight Track Log - Related Links

Times and Time Zones

All times are in EDT time to prevent confusion due to time zone crossing. See the EJA583 flight status page for this flight to view local times or setup timezone preferences in your user account.

Time Position Orientation Groundspeed Altitude Reporting Facility
EDT Latitude Longitude Course Direction KTS MPH feet Rate Location/Type
11:15PM 33.1167 -117.3833 270° West 210 242 3,900  Level Southern California TRACON
11:16PM 33.1000 -117.4500 253° West 260 299 6,700 2,520 Climbing Southern California TRACON
11:17PM 33.0897 -117.5553 263° West 264 304 9,700 2,160 Climbing Los Angeles Center
11:18PM 33.0772 -117.6525 261° West 286 329 11,800 2,460 Climbing Los Angeles Center
11:19PM 33.1489 -117.7344 316° Northwest 306 352 14,800 2,400 Climbing Los Angeles Center
11:20PM 33.2083 -117.8094 313° West 310 357 16,800 1,860 Climbing Los Angeles Center
11:21PM 33.2703 -117.8922 312° West 325 374 18,700 1,740 Climbing Los Angeles Center
11:22PM 33.3339 -117.9753 313° West 336 387 20,400 1,380 Climbing Los Angeles Center
11:23PM 33.4033 -118.0633 313° West 355 409 21,900 1,440 Climbing Los Angeles Center
11:24PM 33.4878 -118.1731 313° West 369 425 23,700 1,560 Climbing Los Angeles Center
11:25PM 33.5728 -118.2447 325° Northwest 378 435 25,200 1,260 Climbing Los Angeles Center
11:26PM 33.6792 -118.3003 337° Northwest 392 451 26,400 1,080 Climbing Los Angeles Center
11:27PM 33.7842 -118.3544 337° Northwest 406 467 27,500 1,020 Climbing Los Angeles Center
11:28PM 33.8972 -118.4136 337° Northwest 418 481 28,600 1,020 Climbing Los Angeles Center
11:29PM 34.0106 -118.4553 343° North 426 490 29,600 1,020 Climbing Los Angeles Center
11:30PM 34.1500 -118.4972 346° North 430 495 30,800 1,020 Climbing Los Angeles Center
11:31PM 34.2667 -118.5319 346° North 432 497 31,800 960 Climbing Los Angeles Center
11:32PM 34.3844 -118.5672 346° North 434 499 32,800 1,020 Climbing Los Angeles Center
11:33PM 34.5028 -118.6036 346° North 437 503 33,900 1,020 Climbing Los Angeles Center
11:35PM 34.6222 -118.6397 346° North 441 507 34,900 960 Climbing Los Angeles Center
11:36PM 34.7433 -118.6750 347° North 446 513 35,900 960 Climbing Los Angeles Center
11:37PM 34.8642 -118.7128 346° North 448 516 36,900 1,020 Climbing Los Angeles Center
11:38PM 35.0086 -118.7558 346° North 457 526 38,100 1,080 Climbing Los Angeles Center
11:39PM 35.1319 -118.7939 346° North 459 528 39,100 900 Climbing Los Angeles Center
11:40PM 35.2581 -118.8308 347° North 469 540 40,000 420 Climbing Los Angeles Center
11:41PM 35.3828 -118.8681 346° North 464 534 40,000  Level Los Angeles Center
11:42PM 35.5117 -118.9094 345° North 472 543 40,000  Level Los Angeles Center
11:43PM 35.6425 -118.9489 346° North 480 552 40,000  Level Los Angeles Center
11:44PM 35.7978 -118.9975 346° North 482 555 40,000  Level Los Angeles Center
11:45PM 35.9261 -119.0389 345° North 478 550 40,000  Level Los Angeles Center
11:46PM 36.0764 -119.0861 346° North 470 541 40,000  Level Los Angeles Center
11:47PM 36.2017 -119.1253 346° North 467 537 40,000  Level Los Angeles Center
11:48PM 36.3244 -119.1647 345° North 461 531 40,000  Level Los Angeles Center
11:49PM 36.4489 -119.2036 346° North 462 532 40,000  Level Los Angeles Center
11:50PM 36.5725 -119.2442 345° North 461 531 40,000  Level Los Angeles Center
11:51PM 36.7186 -119.2883 346° North 457 526 40,000  Level Oakland Center
11:52PM 36.8658 -119.3344 346° North 457 526 40,000  Level Oakland Center
11:53PM 36.9892 -119.3744 345° North 459 528 40,000  Level Oakland Center
11:54PM 37.1131 -119.4136 346° North 462 532 40,000  Level Oakland Center
11:55PM 37.2369 -119.4525 346° North 461 531 40,000  Level Oakland Center
11:56PM 37.3578 -119.4922 345° North 463 533 40,000  Level Oakland Center
11:57PM 37.4828 -119.5328 346° North 464 534 40,000  Level Oakland Center
11:58PM 37.6081 -119.5728 346° North 466 536 40,000  Level Oakland Center
11:59PM 37.7322 -119.6147 345° North 465 535 40,000  Level Oakland Center
12:00AM 37.8572 -119.6553 346° North 464 534 40,000  Level Oakland Center
12:01AM 38.0075 -119.7039 346° North 467 537 40,000  Level Oakland Center
12:03AM 38.1314 -119.7447 345° North 462 532 40,000  Level Oakland Center
12:04AM 38.2533 -119.7869 345° North 457 526 40,000  Level Oakland Center
12:05AM 38.3772 -119.8269 346° North 460 529 40,000  Level Oakland Center
12:06AM 38.5028 -119.8683 346° North 466 536 40,000  Level Oakland Center
12:07AM 38.6275 -119.9097 345° North 465 535 40,000  Level Oakland Center
12:08AM 38.7478 -119.9522 345° North 454 522 40,000  Level Oakland Center
12:09AM 38.8689 -119.9925 345° North 450 518 40,000  Level Oakland Center
12:10AM 38.9892 -120.0331 345° North 452 520 40,000  Level Oakland Center
12:11AM 39.1131 -120.0764 345° North 457 526 40,000  Level Oakland Center
12:12AM 39.2606 -120.1261 345° North 457 526 40,000  Level Oakland Center
12:13AM 39.3806 -120.1669 345° North 453 521 40,000  Level Oakland Center
12:14AM 39.5056 -120.2097 345° North 461 531 40,000  Level Oakland Center
12:15AM 39.6300 -120.2519 345° North 461 531 40,000  Level Oakland Center
12:16AM 39.7542 -120.2972 344° North 463 533 40,000  Level Oakland Center
12:17AM 39.8769 -120.3375 346° North 457 526 40,000  Level Oakland Center
12:18AM 40.0119 -120.3867 344° North 459 528 40,000  Level Oakland Center
12:19AM 40.1281 -120.4269 345° North 458 527 40,000  Level Oakland Center
12:20AM 40.2450 -120.4664 346° North 455 524 40,000  Level Oakland Center
12:21AM 40.3692 -120.5097 345° North 459 528 40,000  Level Oakland Center
12:22AM 40.5147 -120.5606 345° North 457 526 40,000  Level Oakland Center
12:23AM 40.6172 -120.5969 345° North 461 531 40,000  Level Oakland Center
12:24AM 40.7694 -120.6525 345° North 472 543 40,000  Level Oakland Center
12:25AM 40.8983 -120.6986 345° North 478 550 40,000  Level Oakland Center
12:26AM 41.0272 -120.7461 344° North 482 555 40,000  Level Oakland Center
12:27AM 41.1564 -120.7928 345° North 484 557 40,000  Level Oakland Center
12:28AM 41.2839 -120.8394 345° North 479 551 40,000  Level Oakland Center
12:29AM 41.4114 -120.8869 344° North 478 550 40,000  Level Oakland Center
12:30AM 41.5403 -120.9347 344° North 481 554 40,000  Level Oakland Center
12:31AM 41.6672 -120.9811 345° North 477 549 40,000  Level Oakland Center
12:32AM 41.7947 -121.0278 345° North 476 548 40,000  Level Oakland Center
12:33AM 41.9453 -121.0853 344° North 473 544 40,000  Level Oakland Center
12:34AM 42.0703 -121.1314 345° North 470 541 40,000  Level Oakland Center
12:35AM 42.1978 -121.1778 345° North 474 545 40,000  Level Seattle Center
12:36AM 42.3497 -121.2350 344° North 477 549 40,000  Level Seattle Center
12:37AM 42.4758 -121.2833 344° North 477 549 40,000  Level Seattle Center
12:38AM 42.6028 -121.3317 344° North 477 549 40,000  Level Seattle Center
12:39AM 42.7303 -121.3789 345° North 476 548 40,000  Level Seattle Center
12:40AM 42.8569 -121.4308 343° North 478 550 40,000  Level Seattle Center
12:41AM 42.9853 -121.4778 345° North 479 551 40,000  Level Seattle Center
12:42AM 43.1142 -121.5294 344° North 483 556 40,000  Level Seattle Center
12:43AM 43.2417 -121.5783 344° North 478 550 40,000  Level Seattle Center
12:44AM 43.3678 -121.6269 344° North 474 545 40,000  Level Seattle Center
12:45AM 43.4942 -121.6761 344° North 473 544 40,000  Level Seattle Center
12:46AM 43.6219 -121.7269 344° North 480 552 40,000  Level Seattle Center
12:47AM 43.7511 -121.7778 344° North 483 556 40,000  Level Seattle Center
12:48AM 43.8964 -121.8289 346° North 480 552 40,000  Level Seattle Center
12:49AM 44.0272 -121.8814 344° North 482 555 40,000  Level Seattle Center
12:50AM 44.1564 -121.9339 344° North 493 567 40,000  Level Seattle Center
12:51AM 44.2836 -121.9850 344° North 483 556 40,000  Level Seattle Center
12:52AM 44.4114 -122.0403 343° North 482 555 40,000  Level Seattle Center
12:53AM 44.5208 -122.1406 327° Northwest 473 544 40,000  Level Seattle Center
12:54AM 44.6264 -122.2450 325° Northwest 467 537 40,000  Level Seattle Center
12:55AM 44.7308 -122.3481 325° Northwest 463 533 40,000  Level Seattle Center
12:56AM 44.8347 -122.4531 324° Northwest 463 533 40,000  Level Seattle Center
12:57AM 44.9419 -122.5633 324° Northwest 463 533 40,000  Level Seattle Center
12:59AM 45.0556 -122.6467 333° Northwest 478 550 40,000  Level Seattle Center
01:00AM 45.1858 -122.6450 North 477 549 40,000  Level Seattle Center
01:01AM 45.3406 -122.6297 North 470 541 40,000  Level Seattle Center
01:02AM 45.4689 -122.6161 North 466 536 40,000  Level Seattle Center
01:03AM 45.5997 -122.6042 North 472 543 40,000 -660 Level Seattle Center
01:04AM 45.7314 -122.5931 North 476 548 38,700 -2,100 Descending Seattle Center
01:05AM 45.8631 -122.6181 352° North 481 554 35,800 -2,880 Descending Seattle Center
01:06AM 45.9933 -122.6508 350° North 479 551 33,000 -2,820 Descending Seattle Center
01:07AM 46.1261 -122.6822 351° North 482 555 30,200 -2,880 Descending Seattle Center
01:08AM 46.2675 -122.7208 349° North 492 566 27,200 -2,880 Descending Seattle Center
01:09AM 46.3961 -122.7572 349° North 480 552 24,400 -2,580 Descending Seattle Center
01:10AM 46.5108 -122.7886 349° North 435 501 22,000 -2,460 Descending Seattle Center
01:11AM 46.6233 -122.8150 351° North 418 481 19,500 -2,580 Descending Seattle Center
01:12AM 46.7394 -122.8433 351° North 417 480 17,100 -2,400 Descending Seattle Center
01:13AM 46.8389 -122.8681 350° North 341 392 14,900 -2,100 Descending Seattle Center
01:14AM 46.9269 -122.8922 349° North 306 352 12,900 -1,980 Descending Seattle Center
01:14AM 47.0014 -122.8619 16° North 308 354 11,200 -1,800 Descending Seattle Center
01:16AM 47.0689 -122.7772 41° Northeast 297 342 9,300 -1,800 Descending Seattle Center
01:17AM 47.1300 -122.7022 40° Northeast 286 329 7,400 -1,680 Descending Seattle Center
01:17AM 47.1819 -122.6350 41° Northeast 267 307 6,100 -1,200 Descending Seattle Center
01:19AM 47.2336 -122.5678 41° Northeast 245 282 5,100 -1,020 Descending Seattle Center
01:20AM 47.2892 -122.5147 33° Northeast 210 242 4,100 -720 Descending Seattle Center
01:21AM 47.3231 -122.4472 53° Northeast 203 234 3,600 -600 Descending Seattle Center
01:22AM 47.3453 -122.3761 65° Northeast 198 228 3,000 -780 Descending Seattle Center
01:23AM 47.3692 -122.3042 64° Northeast 202 232 2,100 -480 Descending Seattle Center
01:24AM 47.3931 -122.2319 64° Northeast 179 206 2,100 -60 Level Seattle Center
01:25AM 47.4350 -122.2222 North 154 177 2,000 -420 Descending Seattle Center
01:26AM 47.4656 -122.2492 329° Northwest 130 150 1,300 -660 Descending Seattle Center
01:27AM 47.4933 -122.2719 331° Northwest 109 125 700 -600 Descending Seattle Center
01:28AM 47.5192 -122.2936 330° Northwest 111 128 100 -600 Descending Seattle Center